Time;durP1;ratioP1;P1;durP2;ratioP2;P2;SDS_P1;SDS_P2;PMS_P1;PMS_P2;Temp;Humidity;BMP_temperature;BMP_pressure;BME280_temperature;BME280_humidity;BME280_pressure;Samples;Min_cycle;Max_cycle;Signal;HPM_P1;HPM_P2
2021/04/11 00:00:39;;;;;;;24.50;13.55;;;;;;;5.83;58.58;101530.53;1759148;79;21191;-59
2021/04/11 00:03:11;;;;;;;28.00;14.63;;;;;;;5.77;58.64;101525.96;1784135;79;21199;-60
2021/04/11 00:05:40;;;;;;;18.77;11.25;;;;;;;5.72;58.67;101529.22;1766721;79;21120;-59
2021/04/11 00:08:10;;;;;;;20.95;11.43;;;;;;;5.69;58.76;101536.34;1773234;79;21152;-60
2021/04/11 00:10:39;;;;;;;18.67;11.43;;;;;;;5.64;58.66;101531.30;1801725;79;21109;-59
2021/04/11 00:13:12;;;;;;;17.75;12.65;;;;;;;5.61;58.35;101527.50;1774534;79;21192;-59
2021/04/11 00:15:39;;;;;;;19.30;11.30;;;;;;;5.59;57.67;101526.72;1768767;79;21920;-59
2021/04/11 00:18:06;;;;;;;18.75;12.05;;;;;;;5.52;57.45;101530.50;1798998;79;21195;-59
2021/04/11 00:20:34;;;;;;;25.20;11.95;;;;;;;5.46;57.57;101526.82;1764868;79;21113;-59
2021/04/11 00:23:03;;;;;;;17.02;11.10;;;;;;;5.39;58.49;101527.06;1761759;79;21171;-59
2021/04/11 00:25:35;;;;;;;19.35;11.05;;;;;;;5.36;59.17;101530.25;1760510;80;21124;-59
2021/04/11 00:28:03;;;;;;;15.85;10.25;;;;;;;5.29;59.35;101533.55;1788701;79;21354;-59
2021/04/11 00:30:31;;;;;;;17.55;10.15;;;;;;;5.21;59.97;101535.61;1788098;79;21394;-59
2021/04/11 00:33:00;;;;;;;20.12;11.45;;;;;;;5.14;60.32;101538.08;1790611;79;21133;-59
2021/04/11 00:35:28;;;;;;;16.75;9.80;;;;;;;5.10;60.32;101541.27;1788282;79;21121;-60
2021/04/11 00:37:57;;;;;;;21.77;11.05;;;;;;;5.06;60.07;101541.44;1789242;79;21200;-59
2021/04/11 00:40:32;;;;;;;17.48;11.10;;;;;;;4.99;59.77;101536.47;1797621;77;21200;-59
2021/04/11 00:43:11;;;;;;;17.12;12.40;;;;;;;4.93;59.57;101536.69;1788319;79;21409;-59
2021/04/11 00:45:57;;;;;;;16.35;10.95;;;;;;;4.91;59.57;101545.04;1767362;79;21160;-59
2021/04/11 00:48:27;;;;;;;18.77;11.83;;;;;;;4.84;59.66;101542.23;1757823;79;21523;-59
2021/04/11 00:51:06;;;;;;;18.48;12.30;;;;;;;4.77;59.85;101539.02;1747665;79;21126;-60
2021/04/11 00:53:33;;;;;;;21.90;12.25;;;;;;;4.78;59.93;101550.31;1771854;79;22255;-59
2021/04/11 00:56:05;;;;;;;19.67;11.80;;;;;;;4.76;60.06;101554.28;1793301;79;21144;-59
2021/04/11 00:58:32;;;;;;;16.73;11.05;;;;;;;4.72;60.20;101550.06;1787297;79;21646;-59
2021/04/11 01:01:01;;;;;;;22.67;12.58;;;;;;;4.71;60.37;101549.69;1795637;79;21113;-59
2021/04/11 01:03:34;;;;;;;20.00;11.22;;;;;;;4.70;60.66;101548.44;1795674;79;21179;-59
2021/04/11 01:06:02;;;;;;;20.57;11.25;;;;;;;4.76;61.04;101551.67;1787811;79;21433;-60
2021/04/11 01:08:32;;;;;;;18.40;11.12;;;;;;;4.87;60.67;101546.05;1759337;79;21183;-60
2021/04/11 01:11:08;;;;;;;18.45;10.70;;;;;;;4.96;60.32;101550.06;1791814;77;21140;-60
2021/04/11 01:13:41;;;;;;;19.30;12.07;;;;;;;5.05;60.22;101552.33;1758596;78;21132;-60
2021/04/11 01:16:09;;;;;;;19.65;12.20;;;;;;;5.13;60.12;101550.75;1753300;78;21744;-60
2021/04/11 01:18:41;;;;;;;24.37;13.60;;;;;;;5.17;59.88;101552.31;1728986;78;21192;-59
2021/04/11 01:21:27;;;;;;;23.70;13.25;;;;;;;5.17;59.85;101551.84;1802800;78;21588;-59
2021/04/11 01:24:12;;;;;;;19.25;12.80;;;;;;;5.16;59.85;101561.04;1770512;78;21154;-59
2021/04/11 01:26:43;;;;;;;22.55;12.98;;;;;;;5.11;59.72;101553.84;1792377;78;21191;-59
2021/04/11 01:29:12;;;;;;;20.70;12.60;;;;;;;5.05;59.64;101551.03;1788096;78;21168;-59
2021/04/11 01:31:39;;;;;;;18.05;12.03;;;;;;;4.96;59.89;101554.84;1806381;78;21265;-60
2021/04/11 01:34:07;;;;;;;19.77;13.18;;;;;;;4.88;60.56;101546.92;1790063;78;21545;-60
2021/04/11 01:36:38;;;;;;;20.05;13.05;;;;;;;4.79;60.95;101555.91;1795504;78;21191;-59
2021/04/11 01:39:09;;;;;;;19.42;12.43;;;;;;;4.70;61.20;101554.96;1798562;79;21191;-60
2021/04/11 01:41:41;;;;;;;18.52;11.53;;;;;;;4.64;61.44;101559.49;1778325;79;21185;-59
2021/04/11 01:44:13;;;;;;;18.23;12.23;;;;;;;4.61;61.29;101563.52;1756400;79;21213;-59
2021/04/11 01:46:41;;;;;;;21.68;12.45;;;;;;;4.58;61.27;101556.26;1773073;79;21615;-60
2021/04/11 01:49:10;;;;;;;19.85;12.45;;;;;;;4.54;61.22;101560.73;1781832;79;21652;-59
2021/04/11 01:51:42;;;;;;;19.35;12.35;;;;;;;4.49;61.27;101560.05;1791601;79;21135;-60
2021/04/11 01:54:23;;;;;;;18.90;11.83;;;;;;;4.44;61.29;101560.20;1752979;79;21105;-60
2021/04/11 01:56:51;;;;;;;18.37;11.03;;;;;;;4.39;61.11;101556.91;1771072;79;21219;-60
2021/04/11 01:59:26;;;;;;;18.55;11.57;;;;;;;4.35;61.22;101555.77;1794570;79;21559;-60
2021/04/11 02:01:56;;;;;;;23.95;13.72;;;;;;;4.35;61.33;101557.06;1741565;79;21184;-60
2021/04/11 02:17:07;;;;;;;22.82;12.10;;;;;;;5.82;57.83;101557.59;1826278;76;22697;-58
2021/04/11 02:19:37;;;;;;;15.65;11.03;;;;;;;5.89;57.14;101565.55;1779461;79;21183;-60
2021/04/11 02:22:27;;;;;;;19.48;11.20;;;;;;;5.77;57.12;101567.75;1801096;79;21131;-60
2021/04/11 02:24:58;;;;;;;17.73;10.50;;;;;;;5.65;57.24;101570.88;1767555;79;21144;-58
2021/04/11 02:27:26;;;;;;;19.42;12.00;;;;;;;5.53;57.37;101577.87;1800486;79;21171;-58
2021/04/11 02:29:53;;;;;;;21.45;12.37;;;;;;;5.45;57.48;101584.72;1765976;79;21132;-58
2021/04/11 02:32:21;;;;;;;15.45;10.50;;;;;;;5.35;57.82;101580.30;1804884;79;21037;-58
2021/04/11 02:34:50;;;;;;;22.30;12.33;;;;;;;5.24;58.41;101587.69;1750715;79;21207;-58
2021/04/11 02:37:25;;;;;;;16.48;10.70;;;;;;;5.13;58.53;101589.88;1801021;79;21168;-59
2021/04/11 02:39:55;;;;;;;20.65;11.60;;;;;;;5.00;58.61;101592.09;1769708;79;21180;-59
2021/04/11 02:42:27;;;;;;;20.45;10.72;;;;;;;4.82;58.77;101589.27;1790995;78;21194;-58
2021/04/11 02:45:06;;;;;;;14.65;9.85;;;;;;;4.63;58.98;101603.41;1797790;79;21164;-59
2021/04/11 02:47:36;;;;;;;19.50;11.88;;;;;;;4.49;59.29;101602.19;1800056;78;21971;-60
2021/04/11 02:50:07;;;;;;;20.62;12.05;;;;;;;4.41;59.55;101603.77;1803070;79;21108;-59
2021/04/11 02:52:42;;;;;;;25.12;10.95;;;;;;;4.39;59.62;101605.59;1746162;79;21614;-59
2021/04/11 02:55:11;;;;;;;21.73;12.20;;;;;;;4.38;59.65;101602.57;1801583;79;21141;-60
2021/04/11 02:57:40;;;;;;;19.95;11.48;;;;;;;4.35;59.60;101607.89;1796164;79;21124;-59
2021/04/11 03:00:13;;;;;;;18.12;10.90;;;;;;;4.31;59.56;101605.00;1774024;79;21175;-59
2021/04/11 03:02:41;;;;;;;17.82;11.65;;;;;;;4.28;59.56;101610.69;1765902;79;21140;-59
2021/04/11 03:05:12;;;;;;;18.65;10.58;;;;;;;4.24;59.64;101616.08;1791307;79;21160;-59
2021/04/11 03:07:56;;;;;;;21.12;10.78;;;;;;;4.21;59.84;101617.48;1789102;79;21163;-58
2021/04/11 03:11:02;;;;;;;15.83;11.30;;;;;;;4.16;59.99;101619.39;1746108;81;21182;-58
2021/04/11 03:13:30;;;;;;;15.40;9.00;;;;;;;4.09;59.92;101622.65;1791794;79;21195;-60
2021/04/11 03:15:58;;;;;;;21.57;11.40;;;;;;;3.99;60.00;101626.46;1796320;78;21144;-62
2021/04/11 03:18:26;;;;;;;19.23;10.55;;;;;;;3.93;60.16;101635.77;1800642;78;21642;-60
2021/04/11 03:20:56;;;;;;;26.50;13.13;;;;;;;3.89;60.12;101631.95;1796101;78;21547;-59
2021/04/11 03:23:26;;;;;;;23.62;12.43;;;;;;;3.87;60.14;101633.76;1777267;78;21112;-59
2021/04/11 03:26:09;;;;;;;21.37;13.10;;;;;;;3.80;60.18;101641.38;1801882;78;21428;-62
2021/04/11 03:28:54;;;;;;;18.12;13.38;;;;;;;3.74;60.26;101646.77;1762938;78;21545;-55
2021/04/11 03:31:32;;;;;;;;;;;;;;;3.69;60.63;101657.31;1799672;78;21148;-58
2021/04/11 03:34:02;;;;;;;21.62;12.33;;;;;;;3.69;60.94;101653.41;1798336;78;20279;-58
2021/04/11 03:36:30;;;;;;;19.02;12.15;;;;;;;3.65;61.14;101657.48;1762682;78;21195;-57
2021/04/11 03:38:58;;;;;;;19.37;12.20;;;;;;;3.66;60.99;101654.80;1776011;78;22169;-60
2021/04/11 03:41:30;;;;;;;23.40;13.65;;;;;;;3.71;61.27;101660.71;1790898;78;21207;-60
2021/04/11 03:44:00;;;;;;;23.42;12.50;;;;;;;3.71;61.34;101661.17;1803489;78;21096;-60
2021/04/11 03:46:45;;;;;;;24.20;12.00;;;;;;;3.76;61.48;101669.69;1870716;74;23080;-58
2021/04/11 03:49:33;;;;;;;24.07;13.18;;;;;;;3.77;61.30;101677.08;1777572;78;21208;-59
2021/04/11 03:52:12;;;;;;;24.57;11.90;;;;;;;3.77;61.30;101652.34;1780560;78;21198;-60
2021/04/11 03:54:42;;;;;;;24.80;13.40;;;;;;;3.90;61.50;101675.33;1804522;77;21179;-60
2021/04/11 03:57:16;;;;;;;26.50;13.45;;;;;;;4.06;61.59;101687.41;1754356;78;21507;-60
2021/04/11 04:00:02;;;;;;;21.60;13.90;;;;;;;4.30;61.77;101690.12;1805661;78;21236;-60
2021/04/11 04:02:32;;;;;;;26.62;15.35;;;;;;;4.30;61.77;101690.12;1789480;78;21650;-60
2021/04/11 04:05:02;;;;;;;25.08;15.28;;;;;;;4.33;61.85;101690.02;1788198;78;21701;-60
2021/04/11 04:07:41;;;;;;;22.45;15.00;;;;;;;4.34;61.85;101698.25;1705554;81;21702;-61
2021/04/11 04:10:29;;;;;;;23.50;15.10;;;;;;;4.36;62.04;101694.30;1757285;79;23414;-60
2021/04/11 04:13:35;;;;;;;26.50;15.15;;;;;;;4.34;61.83;101696.95;1722217;81;21474;-60
2021/04/11 04:16:39;;;;;;;26.68;15.18;;;;;;;4.34;61.55;101693.04;1724611;80;21218;-59
2021/04/11 04:19:44;;;;;;;27.80;13.70;;;;;;;4.35;61.46;101703.00;1723917;82;21131;-58
2021/04/11 04:22:21;;;;;;;26.82;15.43;;;;;;;4.38;61.44;101706.36;1733146;82;21120;-58
2021/04/11 04:25:30;;;;;;;25.12;15.35;;;;;;;4.41;60.95;101708.86;1722758;82;21203;-58
2021/04/11 04:28:33;;;;;;;23.20;13.62;;;;;;;4.44;60.04;101713.98;1704348;82;21646;-58
2021/04/11 04:31:04;;;;;;;22.02;13.32;;;;;;;4.44;60.04;101713.98;1732434;82;21213;-58
2021/04/11 04:33:49;;;;;;;21.60;13.10;;;;;;;4.45;59.30;101714.39;1721960;82;21204;-58
2021/04/11 04:36:39;;;;;;;20.40;12.68;;;;;;;4.51;59.02;101717.70;1731031;82;21133;-59
2021/04/11 04:39:51;;;;;;;22.27;12.90;;;;;;;4.54;58.91;101720.17;1726217;81;21177;-59
2021/04/11 04:53:23;;;;;;;25.35;16.07;;;;;;;4.73;60.06;101717.82;1806893;76;38449;-57
2021/04/11 05:06:37;;;;;;;16.70;10.13;;;;;;;6.08;56.14;101722.45;1806267;75;22771;-68
2021/04/11 05:09:27;;;;;;;19.25;11.20;;;;;;;6.26;55.53;101729.55;1769603;78;21781;-67
2021/04/11 05:12:16;;;;;;;17.32;9.48;;;;;;;6.52;54.26;101726.31;1760231;80;21053;-68
2021/04/11 05:14:49;;;;;;;16.80;10.32;;;;;;;6.71;53.69;101730.34;1777907;78;21133;-71
2021/04/11 05:17:40;;;;;;;19.57;10.45;;;;;;;6.94;52.67;101729.33;1867242;75;22696;-59
2021/04/11 05:20:14;;;;;;;15.65;9.83;;;;;;;7.03;51.98;101729.41;1839275;75;21203;-59
2021/04/11 05:22:52;;;;;;;16.82;10.18;;;;;;;7.12;51.73;101725.07;1839167;75;21622;-59
2021/04/11 05:25:36;;;;;;;18.98;10.78;;;;;;;7.22;51.03;101726.36;1841925;75;21218;-58
2021/04/11 05:28:37;;;;;;;17.55;9.83;;;;;;;7.31;50.51;101732.11;1837942;76;21196;-58
2021/04/11 05:31:10;;;;;;;14.20;8.85;;;;;;;7.36;50.21;101732.75;1841793;75;21190;-59
2021/04/11 05:33:38;;;;;;;17.10;9.15;;;;;;;7.39;49.44;101730.00;1769033;78;21662;-59
2021/04/11 05:36:38;;;;;;;14.98;9.20;;;;;;;7.43;48.58;101738.97;1777035;79;21088;-59
2021/04/11 05:39:24;;;;;;;18.27;10.43;;;;;;;7.50;48.24;101734.73;1787604;78;21601;-59
2021/04/11 05:42:29;;;;;;;17.35;10.00;;;;;;;7.56;47.71;101734.47;1791463;78;21168;-59
2021/04/11 05:45:20;;;;;;;17.92;9.75;;;;;;;7.61;47.48;101732.48;1745895;80;21194;-59
2021/04/11 05:47:56;;;;;;;16.95;9.83;;;;;;;7.67;47.00;101727.44;1782309;78;21184;-59
2021/04/11 05:50:38;;;;;;;;;;;;;;;7.74;46.73;101738.02;1748084;78;22250;-59
2021/04/11 05:53:17;;;;;;;15.55;8.78;;;;;;;7.80;46.09;101728.54;1762726;78;20299;-60
2021/04/11 05:55:49;;;;;;;19.23;8.90;;;;;;;7.81;45.98;101734.19;1768264;80;22320;-60
2021/04/11 05:58:20;;;;;;;17.85;9.30;;;;;;;7.87;45.57;101735.22;1752422;79;21188;-57
2021/04/11 06:01:01;;;;;;;14.58;9.33;;;;;;;7.96;45.50;101736.55;1745939;80;21755;-58
2021/04/11 06:03:30;;;;;;;18.92;9.90;;;;;;;8.04;45.43;101731.80;1800838;78;21223;-58
2021/04/11 06:06:27;;;;;;;20.30;10.35;;;;;;;8.14;45.32;101738.76;1743793;80;21205;-57
2021/04/11 06:09:18;;;;;;;19.42;10.08;;;;;;;8.24;45.00;101741.32;1782452;78;21151;-60
2021/04/11 06:12:13;;;;;;;18.02;9.15;;;;;;;8.36;44.84;101737.25;1771740;79;21415;-58
2021/04/11 06:15:16;;;;;;;18.40;9.30;;;;;;;8.47;44.57;101732.80;1775155;78;21167;-60
2021/04/11 06:17:44;;;;;;;13.60;9.00;;;;;;;8.59;44.24;101736.59;1809783;77;21199;-60
2021/04/11 06:20:13;;;;;;;18.20;8.35;;;;;;;8.69;44.27;101738.70;1786171;78;21143;-60
2021/04/11 06:23:05;;;;;;;14.98;7.35;;;;;;;8.80;43.86;101738.14;1777996;78;21697;-60
2021/04/11 06:26:05;;;;;;;13.80;7.90;;;;;;;8.92;43.19;101741.44;1775188;80;21560;-60
2021/04/11 06:28:49;;;;;;;15.18;8.15;;;;;;;9.02;42.79;101744.44;1786152;78;21226;-59
2021/04/11 06:31:21;;;;;;;15.50;8.13;;;;;;;9.17;42.17;101740.17;1759420;78;23331;-59
2021/04/11 06:33:52;;;;;;;14.83;8.73;;;;;;;9.27;42.63;101742.70;1754505;78;21202;-62
2021/04/11 06:36:31;;;;;;;16.50;9.23;;;;;;;9.37;43.33;101744.38;1781769;78;21195;-61
2021/04/11 06:39:03;;;;;;;17.98;9.60;;;;;;;9.44;43.67;101741.80;1776343;78;21230;-61
2021/04/11 06:42:02;;;;;;;15.13;8.35;;;;;;;9.52;43.59;101747.97;1810710;77;21672;-59
2021/04/11 06:44:59;;;;;;;13.70;9.43;;;;;;;9.58;43.30;101749.41;1757392;78;21984;-59
2021/04/11 06:47:44;;;;;;;13.05;8.43;;;;;;;9.65;43.89;101751.63;1779317;78;21743;-59
2021/04/11 06:50:30;;;;;;;14.00;8.58;;;;;;;9.73;43.51;101745.94;1778091;78;21218;-59
2021/04/11 06:53:49;;;;;;;13.58;8.23;;;;;;;9.81;42.88;101746.37;1811127;78;21209;-59
2021/04/11 06:57:05;;;;;;;13.28;7.78;;;;;;;9.89;42.80;101745.95;1807855;78;21236;-59
2021/04/11 06:59:45;;;;;;;14.63;8.45;;;;;;;9.93;42.28;101751.89;1807548;78;22111;-58
2021/04/11 07:02:52;;;;;;;14.75;7.70;;;;;;;10.02;42.32;101753.55;1740755;80;21522;-58
2021/04/11 07:05:30;;;;;;;;;;;;;;;10.10;42.15;101754.41;1790165;78;21187;-58
2021/04/11 07:08:10;;;;;;;;;;;;;;;10.21;42.11;101752.03;1791027;78;20300;-58
2021/04/11 07:10:50;;;;;;;15.03;6.72;;;;;;;10.26;42.27;101756.20;1755296;80;20232;-59
2021/04/11 07:13:39;;;;;;;12.88;6.45;;;;;;;10.28;42.00;101756.48;1786474;78;21227;-57
2021/04/11 07:16:46;;;;;;;16.97;7.78;;;;;;;10.36;42.06;101752.98;1770505;79;21655;-59
2021/04/11 07:19:39;;;;;;;11.55;7.28;;;;;;;10.51;42.58;101758.31;1801747;78;21523;-58
2021/04/11 07:22:36;;;;;;;12.95;7.67;;;;;;;10.66;41.83;101759.17;1755298;80;21183;-58
2021/04/11 07:25:54;;;;;;;12.68;8.00;;;;;;;10.80;41.28;101755.28;1770005;78;21006;-58
2021/04/11 07:29:02;;;;;;;14.35;7.20;;;;;;;10.92;40.98;101758.48;1773069;78;21172;-58
2021/04/11 07:31:45;;;;;;;14.35;7.33;;;;;;;11.06;40.75;101758.14;1745478;80;21219;-58
2021/04/11 07:34:54;;;;;;;13.30;8.38;;;;;;;11.20;40.40;101753.38;1774903;78;21186;-58
2021/04/11 07:37:40;;;;;;;13.03;7.00;;;;;;;11.32;40.18;101756.09;1802973;78;21167;-58
2021/04/11 07:40:29;;;;;;;11.63;6.15;;;;;;;11.40;40.29;101757.39;1776773;78;21192;-57
2021/04/11 07:43:23;;;;;;;12.03;6.47;;;;;;;11.50;39.63;101758.55;1720953;81;21614;-57
2021/04/11 07:46:32;;;;;;;13.03;7.30;;;;;;;11.63;39.24;101760.80;1684403;79;21558;-58
2021/04/11 07:49:24;;;;;;;11.97;6.58;;;;;;;11.76;38.90;101758.22;1774975;79;21754;-58
2021/04/11 07:52:36;;;;;;;13.80;7.03;;;;;;;11.85;38.63;101753.69;1763102;78;21717;-59
2021/04/11 07:55:54;;;;;;;12.80;6.40;;;;;;;11.93;38.72;101758.49;1777781;79;21206;-57
2021/04/11 07:58:59;;;;;;;11.38;6.15;;;;;;;12.03;38.37;101758.28;1778548;79;21196;-57
2021/04/11 08:01:49;;;;;;;11.95;5.42;;;;;;;12.14;38.25;101752.77;1777842;79;21215;-58
2021/04/11 08:04:56;;;;;;;9.20;5.30;;;;;;;12.23;37.61;101752.19;1748464;79;21111;-59
2021/04/11 08:07:55;;;;;;;11.22;5.47;;;;;;;12.34;37.41;101757.62;1778627;79;21191;-59
2021/04/11 08:10:36;;;;;;;11.10;5.33;;;;;;;12.49;37.49;101748.30;1748950;79;21175;-59
2021/04/11 08:13:33;;;;;;;10.23;4.95;;;;;;;12.63;36.67;101747.76;1782537;79;21231;-58
2021/04/11 08:16:25;;;;;;;11.25;6.17;;;;;;;12.73;35.81;101747.99;1781730;78;21530;-57
2021/04/11 08:19:13;;;;;;;14.63;5.45;;;;;;;12.82;35.62;101748.67;1775630;78;21132;-56
2021/04/11 08:22:01;;;;;;;9.95;5.67;;;;;;;12.90;35.49;101740.73;1775691;78;21194;-57
2021/04/11 08:25:09;;;;;;;10.88;4.90;;;;;;;12.97;34.88;101740.67;1750930;80;21618;-58
2021/04/11 08:28:15;;;;;;;9.98;4.28;;;;;;;13.07;34.57;101743.05;1743059;80;21199;-61
2021/04/11 08:31:19;;;;;;;8.30;4.37;;;;;;;13.16;34.08;101741.56;1772042;80;21183;-57
2021/04/11 08:34:30;;;;;;;9.03;4.25;;;;;;;13.26;33.33;101739.13;1775749;78;21193;-58
2021/04/11 08:37:18;;;;;;;7.12;3.67;;;;;;;13.34;32.93;101740.30;1773471;80;21176;-60
2021/04/11 08:40:13;;;;;;;7.42;4.30;;;;;;;13.45;33.31;101738.70;1744114;80;21215;-63
2021/04/11 08:42:58;;;;;;;8.50;4.12;;;;;;;13.54;32.35;101742.03;1755450;80;21422;-66
2021/04/11 08:46:05;;;;;;;11.22;3.75;;;;;;;13.61;32.27;101735.34;1775568;80;21136;-61
2021/04/11 08:49:05;;;;;;;10.03;3.60;;;;;;;13.70;31.89;101736.48;1805849;77;21213;-60
2021/04/11 08:51:54;;;;;;;7.62;3.67;;;;;;;13.78;30.94;101727.52;1774842;80;21151;-60
2021/04/11 08:54:43;;;;;;;8.13;4.45;;;;;;;13.87;30.56;101727.32;1748722;79;21620;-63
2021/04/11 08:57:40;;;;;;;7.45;3.62;;;;;;;13.96;30.60;101725.83;1750037;80;21536;-65
2021/04/11 09:00:27;;;;;;;9.58;3.80;;;;;;;14.07;30.32;101724.09;1757636;78;21195;-60
2021/04/11 09:03:29;;;;;;;7.80;3.67;;;;;;;14.18;30.14;101715.34;1768378;80;21132;-62
2021/04/11 09:06:41;;;;;;;8.63;3.95;;;;;;;14.27;29.66;101709.38;1773624;80;21187;-65
2021/04/11 09:09:52;;;;;;;8.25;3.92;;;;;;;14.39;29.42;101706.29;1739147;80;21172;-62
2021/04/11 09:12:46;;;;;;;7.10;3.22;;;;;;;14.49;29.78;101699.80;1782503;78;21205;-66
2021/04/11 09:15:37;;;;;;;8.25;3.80;;;;;;;14.58;29.36;101696.95;1774738;80;21595;-63
2021/04/11 09:18:17;;;;;;;6.87;3.80;;;;;;;14.67;29.32;101694.45;1805215;77;21136;-66
2021/04/11 09:20:59;;;;;;;7.20;3.80;;;;;;;14.78;29.00;101694.14;1815758;77;21123;-62
2021/04/11 09:24:02;;;;;;;9.05;4.28;;;;;;;14.85;28.93;101696.67;1809827;77;21140;-63
2021/04/11 09:26:53;;;;;;;12.93;4.55;;;;;;;14.89;29.09;101692.80;1775287;78;21163;-65
2021/04/11 09:29:47;;;;;;;7.30;3.72;;;;;;;14.98;28.51;101688.13;1819343;77;21188;-63
2021/04/11 09:32:38;;;;;;;9.90;4.00;;;;;;;15.04;28.09;101686.30;1816819;77;21178;-63
2021/04/11 09:35:23;;;;;;;8.65;3.33;;;;;;;15.13;28.74;101685.22;1805972;77;21199;-63
2021/04/11 09:38:25;;;;;;;7.85;3.55;;;;;;;15.26;28.21;101683.29;1799961;77;21608;-63
2021/04/11 09:41:27;;;;;;;7.78;3.65;;;;;;;15.37;27.68;101678.48;1768203;77;21235;-64
2021/04/11 09:44:25;;;;;;;6.70;3.58;;;;;;;15.46;27.87;101671.09;1778083;77;21167;-68
2021/04/11 09:47:25;;;;;;;7.72;3.77;;;;;;;15.56;27.61;101667.22;1789443;77;21163;-58
2021/04/11 09:50:17;;;;;;;8.05;3.72;;;;;;;15.66;26.98;101673.47;1813428;77;21085;-59
2021/04/11 09:53:25;;;;;;;7.55;3.52;;;;;;;15.72;26.65;101670.81;1803793;77;21195;-59
2021/04/11 09:56:11;;;;;;;6.87;3.52;;;;;;;15.81;26.94;101671.41;1819289;77;21196;-60
2021/04/11 09:59:01;;;;;;;8.65;4.42;;;;;;;15.90;26.62;101668.02;1796533;77;21579;-58
2021/04/11 10:02:11;;;;;;;8.08;3.65;;;;;;;15.97;25.91;101665.20;1806195;77;21156;-60
2021/04/11 10:04:53;;;;;;;7.85;4.53;;;;;;;16.02;25.72;101663.50;1806080;77;21175;-59
2021/04/11 10:07:36;;;;;;;9.63;5.03;;;;;;;16.11;26.70;101656.58;1798447;79;22286;-58
2021/04/11 10:10:37;;;;;;;11.40;5.22;;;;;;;16.13;26.52;101659.45;1772064;78;20999;-60
2021/04/11 10:13:26;;;;;;;8.30;4.05;;;;;;;16.21;26.97;101661.48;1764805;79;21276;-60
2021/04/11 10:16:12;;;;;;;13.48;6.00;;;;;;;16.31;25.96;101660.22;1689408;83;21186;-57
2021/04/11 10:19:17;;;;;;;10.08;5.37;;;;;;;16.37;25.70;101654.87;1716253;81;21096;-60
2021/04/11 10:22:15;;;;;;;12.18;4.75;;;;;;;16.39;26.05;101650.27;1710067;80;21251;-59
2021/04/11 10:25:14;;;;;;;9.55;4.67;;;;;;;16.42;25.76;101660.63;1681638;82;21580;-59
2021/04/11 10:28:17;;;;;;;7.92;3.45;;;;;;;16.46;25.31;101657.59;1712788;82;21196;-59
2021/04/11 10:30:49;;;;;;;7.30;3.95;;;;;;;16.50;25.19;101653.69;1717341;81;21231;-58
2021/04/11 10:33:41;;;;;;;6.87;3.87;;;;;;;16.56;26.12;101655.47;1695565;82;21619;-60
2021/04/11 10:36:16;;;;;;;8.90;4.10;;;;;;;16.66;25.10;101649.25;1711262;81;21263;-60
2021/04/11 10:39:02;;;;;;;8.65;4.53;;;;;;;16.73;25.02;101652.22;1682515;82;21235;-59
2021/04/11 10:41:41;;;;;;;8.60;4.22;;;;;;;16.76;25.62;101649.77;1691049;82;22008;-58
2021/04/11 10:44:20;;;;;;;8.08;3.83;;;;;;;16.81;26.31;101649.75;1674730;81;21141;-59
2021/04/11 10:47:27;;;;;;;9.13;4.53;;;;;;;16.94;25.95;101646.05;1714457;81;21172;-59
2021/04/11 10:50:03;;;;;;;8.13;3.87;;;;;;;17.08;25.93;101645.70;1716632;81;21219;-59
2021/04/11 10:53:10;;;;;;;7.90;4.22;;;;;;;17.22;24.83;101649.30;1706774;82;21181;-58
2021/04/11 10:56:12;;;;;;;9.08;4.17;;;;;;;17.29;25.45;101643.45;1690993;82;21250;-58
2021/04/11 10:59:14;;;;;;;10.28;4.20;;;;;;;17.23;26.01;101645.67;1718147;82;21232;-58
2021/04/11 11:02:10;;;;;;;7.95;4.35;;;;;;;17.27;26.23;101631.11;1716546;81;21717;-59
2021/04/11 11:05:09;;;;;;;8.15;4.05;;;;;;;17.39;25.13;101631.00;1710427;83;21254;-58
2021/04/11 11:08:16;;;;;;;9.83;4.22;;;;;;;17.47;25.04;101623.18;1699826;82;21212;-59
2021/04/11 11:11:17;;;;;;;;;;;;;;;17.52;25.02;101618.28;1751432;80;21160;-59
2021/04/11 11:14:37;;;;;;;9.90;3.85;;;;;;;17.61;24.79;101620.09;1745614;80;20302;-59
2021/04/11 11:17:43;;;;;;;11.83;5.33;;;;;;;17.62;24.85;101612.98;1701890;82;21201;-58
2021/04/11 11:20:20;;;;;;;8.03;3.83;;;;;;;17.66;24.35;101605.55;1703483;82;28392;-58
2021/04/11 11:23:36;;;;;;;7.65;4.12;;;;;;;17.64;24.94;101609.68;1712826;81;21216;-58
2021/04/11 11:27:01;;;;;;;8.25;4.20;;;;;;;17.65;24.01;101602.03;1770377;80;21215;-59
2021/04/11 11:29:59;;;;;;;9.28;4.33;;;;;;;17.59;23.55;101599.94;1733622;82;21121;-59
2021/04/11 11:32:35;;;;;;;7.87;4.47;;;;;;;17.54;24.80;101593.70;1764082;80;21174;-59
2021/04/11 11:35:08;;;;;;;10.25;5.83;;;;;;;17.64;25.11;101591.88;1732973;79;21210;-59
2021/04/11 11:38:12;;;;;;;7.72;4.53;;;;;;;17.75;24.48;101584.73;1758745;80;21745;-60
2021/04/11 11:41:10;;;;;;;8.73;5.12;;;;;;;17.80;24.00;101584.68;1750983;79;21209;-58
2021/04/11 11:43:58;;;;;;;9.23;4.72;;;;;;;17.82;24.09;101580.55;1733767;80;21508;-58
2021/04/11 11:47:01;;;;;;;7.95;4.22;;;;;;;17.80;24.23;101588.67;1720988;81;21153;-59
2021/04/11 11:50:03;;;;;;;15.20;4.40;;;;;;;17.76;25.21;101580.60;1763517;79;21132;-59
2021/04/11 11:52:50;;;;;;;9.53;5.58;;;;;;;17.79;25.00;101571.51;1751409;79;21622;-59
2021/04/11 11:55:27;;;;;;;9.35;4.05;;;;;;;17.79;24.17;101570.17;1755230;80;22771;-60
2021/04/11 11:58:20;;;;;;;10.65;5.05;;;;;;;17.78;23.84;101575.14;1764595;79;21216;-60
2021/04/11 12:00:57;;;;;;;9.15;4.10;;;;;;;17.79;24.07;101568.84;1701387;83;21198;-58
2021/04/11 12:03:31;;;;;;;7.25;3.98;;;;;;;17.82;24.27;101571.23;1757994;79;21149;-59
2021/04/11 12:06:21;;;;;;;6.50;4.00;;;;;;;17.92;24.43;101572.56;1755287;80;21157;-59
2021/04/11 12:12:21;;;;;;;8.70;4.90;;;;;;;18.17;23.93;101561.80;1764185;80;21144;-59
2021/04/11 12:15:10;;;;;;;8.20;3.65;;;;;;;18.28;24.47;101564.30;1767939;79;21110;-59
2021/04/11 12:18:08;;;;;;;12.37;4.85;;;;;;;18.43;24.42;101561.18;1768291;79;21670;-59
2021/04/11 12:20:55;;;;;;;7.75;4.08;;;;;;;18.57;23.92;101564.19;1735847;80;21197;-59
2021/04/11 12:23:27;;;;;;;9.38;5.08;;;;;;;18.73;23.32;101556.08;1758560;79;22505;-58
2021/04/11 12:26:14;;;;;;;7.95;3.60;;;;;;;18.80;23.10;101553.66;1724347;82;21230;-58
2021/04/11 12:28:42;;;;;;;7.65;4.22;;;;;;;18.82;23.22;101547.67;1757847;79;21175;-58
2021/04/11 12:31:27;;;;;;;6.60;3.95;;;;;;;18.90;23.19;101546.47;1759889;79;21153;-59
2021/04/11 12:34:37;;;;;;;8.05;3.98;;;;;;;18.96;22.95;101546.36;1734154;80;21187;-59
2021/04/11 12:37:28;;;;;;;7.85;4.08;;;;;;;19.05;23.44;101546.31;1766884;79;21247;-60
2021/04/11 12:40:26;;;;;;;8.70;4.40;;;;;;;19.11;22.40;101539.05;1765537;79;21117;-60
2021/04/11 12:43:20;;;;;;;6.15;3.75;;;;;;;19.16;22.48;101537.74;1766884;79;21464;-59
2021/04/11 12:46:17;;;;;;;7.60;3.85;;;;;;;19.32;22.84;101544.58;1761420;79;21620;-59
2021/04/11 12:49:09;;;;;;;10.30;3.98;;;;;;;19.46;22.42;101537.87;1763516;79;21203;-59
2021/04/11 12:51:42;;;;;;;8.90;4.70;;;;;;;19.60;22.20;101531.14;1739085;79;21152;-59
2021/04/11 12:54:35;;;;;;;8.30;3.98;;;;;;;19.77;21.72;101530.33;1760583;79;21140;-60
2021/04/11 12:57:10;;;;;;;10.20;4.30;;;;;;;19.87;22.00;101528.91;1741660;79;21151;-61
2021/04/11 12:59:46;;;;;;;6.60;3.58;;;;;;;20.04;22.61;101524.50;1711020;80;21584;-60
2021/04/11 13:02:18;;;;;;;7.28;3.92;;;;;;;20.26;22.33;101524.94;1747449;80;21128;-60
2021/04/11 13:04:50;;;;;;;7.90;4.33;;;;;;;20.46;21.85;101517.53;1765931;79;21318;-61
2021/04/11 13:07:26;;;;;;;8.90;4.65;;;;;;;20.57;22.12;101511.39;1748925;80;21608;-59
2021/04/11 13:10:24;;;;;;;8.00;4.40;;;;;;;20.67;22.23;101512.64;1711083;82;21319;-60
2021/04/11 13:13:16;;;;;;;7.40;4.30;;;;;;;20.76;22.13;101516.17;1735685;80;21534;-61
2021/04/11 13:16:22;;;;;;;7.45;3.80;;;;;;;20.91;21.33;101514.57;1742873;82;21192;-60
2021/04/11 13:19:41;;;;;;;7.35;4.55;;;;;;;21.01;21.31;101518.41;1738909;80;21247;-61
2021/04/11 13:22:25;;;;;;;8.40;4.12;;;;;;;21.08;21.56;101516.78;1685443;83;21253;-60